Etusivu
METAR-TAF:

METAR-TAF

Lentoasemat :

Sotilaslentoasema Cameri

Novara, Italia

Leveyspiiri: 45-31N, Pituuspiiri: 008-40E, korkeus merenpinnasta: 178 m

Tämänhetkinen sää

Tämä raportti tehtiin 1 tunti ja 9 minuuttia sitten, kello 14.55 UTC
Tuuli 4 kn lounaasta, vaihdellen etelän/kaakon ja lännen välillä
Lämpötila 18°C
Kosteus 39%
Ilmanpaine 1021 hPa
Näkyvyys 10 km tai enemmän
ei pilviä alle 1500 m:ssä eikä cumulonimbus-pilviä

METAR: LIMN 221455Z 22004KT 150V260 CAVOK 18/04 Q1021 RMK SKC VIS MIN 9999 BLU

Aika: 18:04 (16:04 UTC)

Sääennuste

Tämä raportti tehtiin 2 tuntia ja 4 minuuttia sitten, kello 14.00 UTC
Ennuste voimassa 22. päivästä klo 15 UTC - 22. päivään klo 24 UTC
Tuuli 4 kn eri suunnista
Näkyvyys 10 km tai enemmän
ei pilviä alle 1500 m:ssä eikä cumulonimbus-pilviä

TAF: LIMN 221400Z 2215/2224 VRB04KT CAVOK

Säähavainnot ja -ennusteet yli 4000 lentoasemalta (METAR- ja TAF-raportit).

Käytössä olevat sääasemat on merkitty karttaan keltaisilla ja punaisilla pisteillä.

Aseta hiiri pisteen päälle nähdäksesi sääaseman nimen.

Klikkaa sitten nähdäksesi säähavainnot ja -ennusteet.

Kartan vaihtaminen: klikkaa mustalla rastilla varustettuja vihreitä pisteitä, niin voit zoomata sisään; viivalla varustettua vihreää pistettä, niin voit zoomata ulos tai vihreitä nuolia, niin pääset viereisille kartoille.


METAR-TAF: